Concepcion, Chile
Current Conditions -  °F | °C
As of 2:00 AM on Sunday 26 Oct 2014 (Local Time) from SCIE Reporting Station
Few Clouds Few Clouds  
Wind Chill: 55°   Ceiling: Unl
Heat Index: 55°   Visibility: 6mi
Dew Point: 54°   Wind: 3mph
Humidity: 94%   Direction: 350°N
Pressure: 29.91"   Gusts: NA
Location:  36.83°S, 73.05°W
Report Text: SCIE 260600Z 35003KT 9999 FEW010 13/12 Q1013
Loading
Personal Weather Stations






























Interactive Weather Map
Tropical Storm Tracking
New forecast layout! Learn more

10-Day Weather Forecast

Advertisements
Track Severe Weather on mobile